CheckWX is a tool to help pilots better visualize weather data.  It is not intended as a substitute for an official pre-flight weather briefing.

01:45:51 UTC

KFAT METAR
Fresno Yosemite International Airport
Fresno, California, USA
Current

53 mins ago

KFAT 190053Z 27003KT 10SM CLR 35/06 A2978 RMK AO2 SLP081 T03500056
Observed
Aug-19 @ 00:53 UTC
Wind
  • 270° at 3 KTS
Visibility
10 SM
Flight Rules
VFR
Cloud Levels
  • Clear skies
Temperature
35°C / 95°F
Dewpoint
C / 43°F
Humidity
16%
Altimeter
29.78" Hg
Pressure
1008.42 hPa
Previous

2 hours ago

KFAT 182353Z 25005KT 10SM FEW110 34/07 A2979 RMK AO2 SLP083 HZ DSNT ALQDS T03440067 10350 20267 56015
Observed
Aug-18 @ 23:53 UTC
Wind
  • 250° at 5 KTS
Visibility
10 SM
Flight Rules
VFR
Cloud Levels
  • Few at 11,000' AGL
Temperature
34°C / 93°F
Dewpoint
C / 45°F
Humidity
19%
Altimeter
29.79" Hg
Pressure
1008.82 hPa
Previous

3 hours ago

KFAT 182253Z 24006KT 10SM FEW100 34/07 A2980 RMK AO2 SLP086 HZ DSNT ALQDS T03440072
Observed
Aug-18 @ 22:53 UTC
Wind
  • 240° at 6 KTS
Visibility
10 SM
Flight Rules
VFR
Cloud Levels
  • Few at 10,000' AGL
Temperature
34°C / 93°F
Dewpoint
C / 45°F
Humidity
19%
Altimeter
29.8" Hg
Pressure
1009.12 hPa